Flight Track Log - Related Links

Times and Time Zones

All times are in EDT time to prevent confusion due to time zone crossing. See the XA-LFA flight status page for this flight to view local times or setup timezone preferences in your user account.

Time Position Orientation Groundspeed Altitude Reporting Facility
EDT Latitude Longitude Course Direction KTS MPH feet Rate Location/Type
Mon 10:25:07 PM 33.9167 -118.4833 140° Southeast 248 285 2,700  Level Southern California TRACON
Mon 10:26:05 PM 33.8611 -118.5306 215° Southwest 269 310 4,500 1,866 Climbing Los Angeles Center
Mon 10:27:06 PM 33.7872 -118.5175 172° South 274 315 6,400 1,854 Climbing Los Angeles Center
Mon 10:28:08 PM 33.7175 -118.4794 156° South 291 335 8,300 1,790 Climbing Los Angeles Center
Mon 10:29:10 PM 33.6539 -118.4203 142° Southeast 294 338 10,100 1,317 Climbing Los Angeles Center
Mon 10:30:00 PM 33.5819 -118.0484 140° Southeast  Level FlightAware Approximate
Mon 10:30:11 PM 33.5981 -118.3347 128° Southeast 331 381 11,000  Level Los Angeles Center
Mon 10:31:13 PM 33.5242 -118.2014 124° Southeast 396 456 11,000  Level Los Angeles Center
Mon 10:32:15 PM 33.4617 -118.0900 124° Southeast 405 466 11,000  Level Los Angeles Center
Mon 10:33:16 PM 33.4128 -118.0008 123° Southeast 404 465 11,000  Level Los Angeles Center
Mon 10:34:18 PM 33.3389 -117.8669 123° Southeast 404 465 11,000  Level Los Angeles Center
Mon 10:35:20 PM 33.2656 -117.7342 123° Southeast 402 463 11,000  Level Los Angeles Center
Mon 10:36:21 PM 33.2036 -117.6225 124° Southeast 404 465 11,000  Level Los Angeles Center
Mon 10:37:08 PM 33.1500 -117.5333 126° Southeast 407 468 11,000 -729 Level Southern California TRACON
Mon 10:38:08 PM 33.0667 -117.4667 146° Southeast 350 403 9,700 -1,325 Descending Southern California TRACON
Mon 10:38:25 PM 33.0589 -117.4461 114° Southeast 354 407 9,300 -1,538 Descending Los Angeles Center
Mon 10:39:26 PM 32.9872 -117.3911 147° Southeast 314 361 7,700 -1,327 Descending Los Angeles Center
Mon 10:40:09 PM 32.9333 -117.3500 147° Southeast 270 311 7,000 -408 Descending Southern California TRACON
Mon 10:41:09 PM 32.8833 -117.3000 140° Southeast 221 254 7,000  Level Southern California TRACON
Mon 10:41:29 PM 32.8725 -117.2997 179° South 234 269 7,000  Level Los Angeles Center
Mon 10:42:31 PM 32.8408 -117.2247 117° Southeast 231 266 7,000  Level Los Angeles Center
Mon 10:43:33 PM 32.8261 -117.1492 103° East 230 265 7,000  Level Los Angeles Center
Mon 10:44:15 PM 32.8167 -117.1000 103° East 230 265 7,000 -118 Level Southern California TRACON
Mon 10:45:15 PM 32.8000 -117.0333 107° East 224 258 6,800 -737 Descending Southern California TRACON
Mon 10:46:09 PM 32.7833 -116.9667 107° East 228 262 5,600 -947 Descending Southern California TRACON
Mon 10:47:09 PM 32.7667 -116.9000 107° East 217 250 5,000 -400 Descending Southern California TRACON
Mon 10:47:39 PM 32.7500 -116.8731 126° Southeast 220 253 5,000 -65 Level Los Angeles Center
Mon 10:48:41 PM 32.7000 -116.8603 168° South 203 234 4,900 -600 Descending Los Angeles Center
Mon 10:49:09 PM 32.6667 -116.8833 210° Southwest 209 241 4,100 -614 Descending Southern California TRACON
Mon 10:50:09 PM 32.6667 -116.9333 270° West 172 198 4,000 -250 Descending Southern California TRACON
Mon 10:51:09 PM 32.6833 -116.9833 292° West 171 197 3,600 -700 Descending Southern California TRACON
Mon 10:52:09 PM 32.7000 -117.0500 287° West 165 190 2,600 -942 Descending Southern California TRACON
Mon 10:53:10 PM 32.7167 -117.1000 292° West 161 185 1,700 -843 Descending Southern California TRACON
Mon 10:54:10 PM 32.7167 -117.1333 270° West 120 138 900 -720 Descending Southern California TRACON
Mon 10:54:50 PM 32.7256 -117.1567 294° West 123 142 500 -353 Descending Los Angeles Center
Mon 10:55:52 PM 32.7325 -117.1922 283° West 121 139 300 -194 Descending Los Angeles Center

Login

Don't have an account? Register now (free) for customized features, flight alerts, and more!